createdAt,value
2023-04-02T00:00:30.055Z,5.20
2023-04-02T00:03:04.455Z,4.80
2023-04-02T00:05:50.719Z,4.70
2023-04-02T00:08:20.443Z,3.40
2023-04-02T00:10:51.973Z,3.50
2023-04-02T00:13:18.686Z,3.20
2023-04-02T00:15:50.028Z,3.00
2023-04-02T00:18:18.373Z,3.40
2023-04-02T00:20:47.885Z,3.70
2023-04-02T00:23:14.938Z,3.50
2023-04-02T00:25:45.793Z,3.60
2023-04-02T00:28:14.708Z,3.60
2023-04-02T00:30:47.645Z,2.70
2023-04-02T00:33:16.415Z,3.10
2023-04-02T00:35:43.303Z,3.90
2023-04-02T00:38:18.045Z,3.80
2023-04-02T00:40:46.103Z,3.50
2023-04-02T00:43:16.718Z,3.40
2023-04-02T00:45:50.838Z,3.20
2023-04-02T00:48:23.715Z,2.70
2023-04-02T00:50:51.106Z,2.60
2023-04-02T00:53:22.353Z,3.10
2023-04-02T00:55:49.135Z,2.80
2023-04-02T00:58:36.624Z,3.00
2023-04-02T01:01:04.755Z,2.40
2023-04-02T01:03:37.589Z,2.70
2023-04-02T01:06:10.927Z,3.10
2023-04-02T01:08:53.156Z,3.60
2023-04-02T01:11:19.851Z,4.00
2023-04-02T01:14:02.197Z,4.30
2023-04-02T01:16:32.323Z,4.00
2023-04-02T01:19:04.556Z,4.20
2023-04-02T01:21:53.950Z,4.60
2023-04-02T01:24:21.411Z,4.90
2023-04-02T01:27:08.310Z,4.50
2023-04-02T01:29:39.197Z,4.30
2023-04-02T01:32:07.712Z,3.80
2023-04-02T01:34:34.968Z,3.80
2023-04-02T01:37:01.943Z,4.50
2023-04-02T01:39:28.742Z,3.90
2023-04-02T01:42:13.877Z,3.80
2023-04-02T01:44:46.481Z,3.70
2023-04-02T01:47:15.042Z,4.50
2023-04-02T01:49:42.752Z,4.60
2023-04-02T01:52:12.728Z,5.20
2023-04-02T01:54:40.826Z,5.70
2023-04-02T01:57:08.063Z,5.50
2023-04-02T01:59:35.879Z,4.60
2023-04-02T02:02:05.941Z,5.50
2023-04-02T02:04:34.560Z,4.90
2023-04-02T02:07:02.110Z,4.90
2023-04-02T02:09:30.802Z,4.90
2023-04-02T02:11:58.875Z,6.00
2023-04-02T02:14:27.321Z,5.90
2023-04-02T02:16:56.728Z,5.60
2023-04-02T02:19:23.545Z,4.90
2023-04-02T02:21:52.495Z,5.40
2023-04-02T02:24:19.271Z,4.50
2023-04-02T02:26:48.275Z,5.10
2023-04-02T02:29:17.886Z,5.60
2023-04-02T02:31:47.374Z,4.80
2023-04-02T02:34:20.886Z,5.20
2023-04-02T02:36:50.854Z,4.90
2023-04-02T02:39:33.331Z,4.90
2023-04-02T02:42:00.396Z,10.60
2023-04-02T02:44:28.802Z,12.10
2023-04-02T02:47:03.565Z,16.00
2023-04-02T02:49:36.210Z,9.30
2023-04-02T02:52:03.666Z,4.30
2023-04-02T02:54:38.345Z,3.40
2023-04-02T02:57:07.945Z,4.00
2023-04-02T02:59:34.983Z,3.70
2023-04-02T03:02:02.731Z,4.10
2023-04-02T03:04:30.810Z,3.40
2023-04-02T03:06:58.571Z,3.50
2023-04-02T03:09:35.047Z,3.60
2023-04-02T03:12:08.714Z,3.10
2023-04-02T03:14:43.358Z,3.00
2023-04-02T03:17:13.362Z,2.50
2023-04-02T03:19:41.036Z,2.90
2023-04-02T03:22:21.464Z,2.40
2023-04-02T03:24:58.524Z,2.50
2023-04-02T03:27:32.232Z,2.60
2023-04-02T03:29:59.193Z,2.90
2023-04-02T03:32:29.031Z,2.90
2023-04-02T03:35:35.488Z,2.70
2023-04-02T03:38:06.500Z,3.40
2023-04-02T03:40:39.408Z,2.90
2023-04-02T03:43:13.176Z,3.60
2023-04-02T03:45:41.652Z,3.30
2023-04-02T03:48:12.709Z,3.20
2023-04-02T03:50:45.552Z,2.70
2023-04-02T03:53:12.632Z,3.00
2023-04-02T03:55:41.166Z,2.90
2023-04-02T03:58:11.834Z,2.50
2023-04-02T04:00:51.132Z,2.50
2023-04-02T04:03:26.985Z,2.90
2023-04-02T04:06:14.378Z,2.30
2023-04-02T04:08:46.976Z,2.10
2023-04-02T04:11:15.797Z,2.20
2023-04-02T04:13:49.497Z,1.90
2023-04-02T04:16:19.109Z,1.80
2023-04-02T04:19:21.983Z,1.80
2023-04-02T04:21:49.235Z,2.00
2023-04-02T04:24:23.242Z,2.00
2023-04-02T04:27:09.621Z,2.00
2023-04-02T04:29:40.817Z,1.90
2023-04-02T04:32:13.062Z,1.90
2023-04-02T04:34:46.772Z,1.90
2023-04-02T04:37:21.935Z,2.40
2023-04-02T04:40:02.086Z,2.00
2023-04-02T04:42:31.938Z,2.20
2023-04-02T04:45:03.910Z,2.00
2023-04-02T04:47:43.890Z,2.30
2023-04-02T04:50:21.415Z,3.40
2023-04-02T04:52:48.214Z,2.30
2023-04-02T04:55:38.705Z,2.30
2023-04-02T04:58:14.026Z,2.10
2023-04-02T05:00:44.246Z,2.20
2023-04-02T05:03:20.791Z,2.10
2023-04-02T05:05:48.148Z,1.60
2023-04-02T05:08:19.472Z,2.10
2023-04-02T05:10:52.338Z,2.40
2023-04-02T05:13:31.880Z,2.80
2023-04-02T05:16:23.028Z,3.10
2023-04-02T05:18:56.094Z,3.30
2023-04-02T05:21:38.018Z,13.10
2023-04-02T05:24:17.280Z,6.50
2023-04-02T05:26:46.850Z,6.60
2023-04-02T05:29:20.697Z,10.60
2023-04-02T05:32:10.949Z,6.80
2023-04-02T05:34:39.529Z,5.10
2023-04-02T05:37:09.265Z,3.90
2023-04-02T05:39:36.663Z,3.90
2023-04-02T05:42:08.435Z,3.50
2023-04-02T05:45:00.276Z,2.90
2023-04-02T05:47:29.598Z,2.30
2023-04-02T05:50:10.523Z,2.40
2023-04-02T05:52:44.979Z,1.60
2023-04-02T05:55:12.362Z,2.00
2023-04-02T05:57:52.871Z,1.90
2023-04-02T06:00:38.796Z,1.40
2023-04-02T06:03:27.383Z,1.60
2023-04-02T06:05:58.079Z,1.90
2023-04-02T06:08:30.503Z,1.80
2023-04-02T06:11:04.306Z,2.20
2023-04-02T06:13:31.199Z,2.70
2023-04-02T06:15:58.784Z,3.40
2023-04-02T06:18:31.433Z,3.40
2023-04-02T06:20:59.214Z,2.70
2023-04-02T06:23:40.187Z,2.40
2023-04-02T06:26:07.747Z,2.30
2023-04-02T06:28:45.531Z,2.10
2023-04-02T06:31:33.284Z,2.00
2023-04-02T06:34:03.850Z,2.00
2023-04-02T06:36:33.032Z,2.10
2023-04-02T06:39:06.869Z,2.10
2023-04-02T06:41:33.959Z,2.30
2023-04-02T06:44:21.650Z,2.10
2023-04-02T06:47:21.560Z,2.60
2023-04-02T06:49:52.438Z,4.70
2023-04-02T06:52:48.633Z,3.70
2023-04-02T06:55:21.807Z,3.20
2023-04-02T06:57:48.966Z,3.50
2023-04-02T07:00:23.973Z,3.80
2023-04-02T07:02:51.677Z,3.50
2023-04-02T07:05:18.438Z,16.50
2023-04-02T07:07:47.406Z,8.00
2023-04-02T07:10:14.658Z,5.00
2023-04-02T07:12:41.591Z,4.60
2023-04-02T07:15:11.201Z,5.00
2023-04-02T07:17:38.006Z,3.70
2023-04-02T07:20:04.981Z,13.20
2023-04-02T07:22:32.083Z,5.60
2023-04-02T07:25:01.205Z,3.30
2023-04-02T07:27:28.126Z,5.60
2023-04-02T07:29:54.869Z,2.30
2023-04-02T07:32:21.583Z,2.70
2023-04-02T07:34:49.085Z,2.50
2023-04-02T07:37:15.891Z,2.90
2023-04-02T07:39:42.617Z,3.70
2023-04-02T07:42:09.939Z,3.10
2023-04-02T07:44:36.685Z,3.00
2023-04-02T07:47:03.531Z,2.70
2023-04-02T07:49:30.417Z,4.20
2023-04-02T07:51:57.227Z,4.70
2023-04-02T07:54:23.899Z,4.30
2023-04-02T07:56:50.841Z,2.80
2023-04-02T07:59:17.706Z,2.80
2023-04-02T08:01:44.587Z,3.30
2023-04-02T08:04:17.012Z,4.30
2023-04-02T08:06:43.813Z,4.00
2023-04-02T08:09:10.553Z,4.80
2023-04-02T08:11:37.450Z,4.10
2023-04-02T08:14:04.250Z,3.80
2023-04-02T08:16:44.057Z,11.60
2023-04-02T08:19:10.865Z,8.50
2023-04-02T08:21:37.604Z,6.60
2023-04-02T08:24:04.391Z,5.60
2023-04-02T08:26:31.328Z,10.10
2023-04-02T08:28:58.113Z,5.80
2023-04-02T08:31:24.971Z,4.70
2023-04-02T08:33:51.992Z,3.80
2023-04-02T08:36:20.174Z,5.40
2023-04-02T08:38:47.343Z,4.80
2023-04-02T08:41:22.029Z,3.80
2023-04-02T08:44:08.577Z,3.00
2023-04-02T08:46:38.519Z,4.30
2023-04-02T08:49:11.602Z,4.60
2023-04-02T08:51:38.537Z,3.40
2023-04-02T08:54:11.464Z,4.40
2023-04-02T08:56:48.619Z,8.30
2023-04-02T08:59:27.303Z,6.30
2023-04-02T09:02:12.898Z,4.40
2023-04-02T09:04:41.694Z,3.70
2023-04-02T09:07:12.345Z,2.50
2023-04-02T09:09:39.139Z,3.20
2023-04-02T09:12:07.400Z,2.50
2023-04-02T09:14:34.114Z,1.80
2023-04-02T09:17:02.203Z,1.80
2023-04-02T09:19:40.913Z,1.80
2023-04-02T09:22:09.022Z,2.40
2023-04-02T09:24:36.722Z,1.40
2023-04-02T09:27:04.054Z,1.40
2023-04-02T09:29:33.886Z,3.20
2023-04-02T09:32:06.642Z,2.20
2023-04-02T09:34:34.997Z,1.40
2023-04-02T09:37:15.075Z,1.20
2023-04-02T09:39:42.126Z,1.00
2023-04-02T09:42:28.035Z,1.30
2023-04-02T09:45:12.121Z,1.00
2023-04-02T09:47:40.927Z,1.30
2023-04-02T09:50:15.436Z,1.10
2023-04-02T09:52:42.270Z,1.40
2023-04-02T09:55:15.532Z,2.70
2023-04-02T09:57:42.800Z,1.60
2023-04-02T10:00:21.870Z,1.50
2023-04-02T10:03:03.812Z,1.80
2023-04-02T10:05:40.444Z,1.10
2023-04-02T10:08:19.813Z,1.40
2023-04-02T10:10:49.142Z,1.30
2023-04-02T10:13:34.749Z,1.40
2023-04-02T10:16:09.564Z,1.40
2023-04-02T10:18:41.596Z,1.60
2023-04-02T10:21:10.461Z,1.20
2023-04-02T10:23:37.199Z,1.50
2023-04-02T10:26:03.897Z,1.80
2023-04-02T10:28:50.843Z,1.30
2023-04-02T10:31:25.523Z,1.80
2023-04-02T10:33:58.276Z,1.10
2023-04-02T10:36:43.080Z,1.70
2023-04-02T10:39:16.121Z,1.40
2023-04-02T10:41:57.244Z,1.30
2023-04-02T10:44:39.380Z,1.20
2023-04-02T10:47:09.324Z,0.60
2023-04-02T10:49:42.144Z,1.00
2023-04-02T10:52:09.074Z,1.00
2023-04-02T10:54:36.538Z,0.90
2023-04-02T10:57:08.243Z,0.90
2023-04-02T10:59:37.556Z,0.80
2023-04-02T11:02:22.600Z,0.60
2023-04-02T11:04:50.992Z,0.70
2023-04-02T11:07:20.721Z,0.50
2023-04-02T11:09:48.873Z,0.50
2023-04-02T11:12:21.612Z,0.60
2023-04-02T11:14:49.657Z,0.70
2023-04-02T11:17:17.466Z,1.10
2023-04-02T11:19:44.464Z,0.70
2023-04-02T11:22:20.637Z,0.60
2023-04-02T11:24:51.683Z,0.70
2023-04-02T11:27:18.380Z,0.40
2023-04-02T11:29:53.804Z,0.40
2023-04-02T11:32:20.809Z,0.50
2023-04-02T11:35:02.990Z,0.50
2023-04-02T11:37:44.015Z,0.70
2023-04-02T11:40:11.099Z,0.50
2023-04-02T11:42:40.534Z,0.30
2023-04-02T11:45:28.705Z,0.30
2023-04-02T11:48:02.299Z,0.20
2023-04-02T11:50:29.598Z,0.50
2023-04-02T11:52:59.845Z,0.30
2023-04-02T11:55:34.388Z,0.30
2023-04-02T11:58:11.088Z,0.20
2023-04-02T12:00:47.772Z,0.50
2023-04-02T12:03:32.283Z,0.20
2023-04-02T12:06:18.875Z,0.30
2023-04-02T12:08:57.967Z,0.30
2023-04-02T12:11:32.850Z,0.50
2023-04-02T12:14:00.216Z,0.20
2023-04-02T12:16:31.536Z,0.40
2023-04-02T12:18:59.466Z,0.50
2023-04-02T12:21:27.598Z,0.30
2023-04-02T12:24:00.980Z,0.30
2023-04-02T12:26:30.437Z,0.30
2023-04-02T12:29:17.534Z,0.50
2023-04-02T12:31:47.884Z,0.40
2023-04-02T12:34:20.374Z,0.30
2023-04-02T12:36:54.108Z,0.40
2023-04-02T12:39:21.568Z,0.40
2023-04-02T12:41:48.677Z,0.30
2023-04-02T12:44:21.927Z,0.50
2023-04-02T12:46:49.307Z,0.60
2023-04-02T12:49:35.024Z,0.40
2023-04-02T12:52:03.852Z,0.30
2023-04-02T12:54:32.216Z,0.50
2023-04-02T12:57:19.005Z,0.70
2023-04-02T12:59:45.955Z,0.40
2023-04-02T13:02:20.378Z,0.30
2023-04-02T13:04:51.956Z,0.40
2023-04-02T13:07:20.289Z,0.30
2023-04-02T13:09:49.594Z,0.50
2023-04-02T13:12:25.698Z,0.50
2023-04-02T13:14:54.350Z,0.30
2023-04-02T13:17:40.029Z,0.30
2023-04-02T13:20:25.413Z,0.40
2023-04-02T13:22:52.296Z,0.30
2023-04-02T13:25:19.142Z,0.20
2023-04-02T13:27:46.109Z,0.20
2023-04-02T13:30:19.976Z,0.40
2023-04-02T13:32:46.774Z,0.40
2023-04-02T13:35:13.719Z,0.60
2023-04-02T13:37:40.784Z,0.40
2023-04-02T13:40:09.253Z,0.50
2023-04-02T13:42:37.163Z,0.80
2023-04-02T13:45:04.400Z,1.60
2023-04-02T13:47:31.156Z,0.30
2023-04-02T13:50:03.445Z,0.30
2023-04-02T13:52:30.765Z,0.10
2023-04-02T13:55:01.398Z,0.10
2023-04-02T13:57:28.151Z,0.10
2023-04-02T13:59:56.089Z,0.20
2023-04-02T14:02:24.761Z,0.10
2023-04-02T14:04:53.579Z,0.20
2023-04-02T14:07:20.379Z,0.20
2023-04-02T14:09:59.799Z,0.90
2023-04-02T14:12:35.790Z,0.60
2023-04-02T14:15:19.333Z,0.60
2023-04-02T14:17:47.785Z,0.40
2023-04-02T14:20:30.466Z,0.80
2023-04-02T14:23:07.143Z,0.40
2023-04-02T14:25:43.611Z,0.50
2023-04-02T14:28:17.325Z,0.30
2023-04-02T14:30:53.554Z,0.20
2023-04-02T14:33:33.113Z,0.20
2023-04-02T14:36:06.817Z,0.10
2023-04-02T14:38:43.889Z,0.10
2023-04-02T14:41:14.354Z,0.30
2023-04-02T14:43:44.345Z,0.30
2023-04-02T14:46:11.554Z,0.10
2023-04-02T14:48:45.153Z,0.10
2023-04-02T14:51:18.934Z,0.20
2023-04-02T14:53:46.336Z,0.20
2023-04-02T14:56:15.356Z,0.10
2023-04-02T14:58:49.602Z,0.20
2023-04-02T15:01:19.856Z,0.10
2023-04-02T15:03:53.899Z,0.20
2023-04-02T15:06:24.409Z,0.30
2023-04-02T15:09:09.011Z,0.30
2023-04-02T15:11:40.335Z,0.30
2023-04-02T15:14:19.776Z,0.60
2023-04-02T15:16:46.800Z,0.40
2023-04-02T15:19:15.788Z,0.40
2023-04-02T15:22:06.984Z,0.50
2023-04-02T15:24:49.012Z,0.60
2023-04-02T15:27:34.385Z,0.60
2023-04-02T15:30:12.621Z,0.80
2023-04-02T15:32:40.512Z,0.70
2023-04-02T15:35:11.045Z,0.70
2023-04-02T15:37:44.327Z,0.50
2023-04-02T15:40:30.606Z,0.60
2023-04-02T15:43:06.750Z,0.70
2023-04-02T15:45:41.129Z,0.80
2023-04-02T15:48:28.998Z,0.60
2023-04-02T15:51:05.075Z,0.60
2023-04-02T15:53:44.049Z,0.60
2023-04-02T15:56:26.688Z,0.50
2023-04-02T15:59:03.223Z,0.50
2023-04-02T16:01:30.483Z,0.40
2023-04-02T16:04:18.096Z,0.50
2023-04-02T16:06:57.402Z,0.30
2023-04-02T16:09:24.556Z,0.90
2023-04-02T16:11:56.563Z,0.30
2023-04-02T16:14:31.475Z,0.50
2023-04-02T16:17:03.979Z,0.40
2023-04-02T16:19:35.334Z,0.20
2023-04-02T16:22:16.516Z,0.30
2023-04-02T16:24:43.711Z,0.30
2023-04-02T16:27:17.251Z,0.30
2023-04-02T16:29:53.938Z,0.20
2023-04-02T16:32:36.255Z,0.20
2023-04-02T16:35:41.190Z,0.20
2023-04-02T16:38:12.495Z,0.30
2023-04-02T16:41:08.333Z,0.30
2023-04-02T16:43:57.952Z,0.30
2023-04-02T16:46:38.797Z,0.40
2023-04-02T16:49:27.458Z,0.40
2023-04-02T16:51:58.592Z,0.70
2023-04-02T16:54:26.550Z,0.60
2023-04-02T16:56:54.389Z,0.20
2023-04-02T16:59:27.859Z,0.30
2023-04-02T17:02:27.100Z,0.20
2023-04-02T17:05:02.637Z,3.30
2023-04-02T17:07:30.179Z,1.00
2023-04-02T17:10:19.947Z,0.80
2023-04-02T17:12:48.744Z,1.20
2023-04-02T17:17:55.423Z,4.80
2023-04-02T17:20:24.745Z,6.70
2023-04-02T17:22:53.579Z,12.20
2023-04-02T17:25:26.636Z,3.70
2023-04-02T17:27:55.704Z,2.00
2023-04-02T17:30:35.125Z,2.60
2023-04-02T17:33:06.369Z,2.80
2023-04-02T17:35:52.368Z,1.50
2023-04-02T17:38:41.662Z,0.40
2023-04-02T17:41:24.902Z,0.20
2023-04-02T17:43:52.808Z,0.40
2023-04-02T17:46:32.036Z,0.30
2023-04-02T17:49:18.596Z,0.40
2023-04-02T17:51:52.847Z,0.40
2023-04-02T17:54:20.542Z,1.00
2023-04-02T17:56:51.622Z,0.20
2023-04-02T17:59:37.634Z,0.20
2023-04-02T18:02:21.448Z,0.20
2023-04-02T18:05:01.694Z,0.20
2023-04-02T18:07:38.697Z,0.50
2023-04-02T18:10:06.242Z,0.30
2023-04-02T18:12:40.814Z,0.10
2023-04-02T18:15:36.291Z,6.30
2023-04-02T18:18:09.771Z,0.90
2023-04-02T18:20:40.243Z,0.40
2023-04-02T18:23:28.913Z,2.90
2023-04-02T18:26:06.752Z,2.70
2023-04-02T18:28:41.968Z,4.00
2023-04-02T18:31:12.809Z,1.70
2023-04-02T18:34:03.201Z,1.00
2023-04-02T18:36:38.591Z,0.80
2023-04-02T18:39:18.363Z,1.50
2023-04-02T18:42:08.855Z,0.40
2023-04-02T18:44:47.032Z,0.10
2023-04-02T18:47:33.523Z,0.10
2023-04-02T18:50:13.298Z,0.10
2023-04-02T18:52:42.923Z,0.10
2023-04-02T18:55:30.281Z,0.10
2023-04-02T18:58:10.506Z,0.10
2023-04-02T19:00:42.350Z,0.10
2023-04-02T19:03:28.841Z,0.10
2023-04-02T19:06:01.884Z,0.20
2023-04-02T19:08:32.913Z,0.10
2023-04-02T19:11:04.718Z,0.10
2023-04-02T19:13:32.917Z,0.10
2023-04-02T19:16:19.472Z,0.20
2023-04-02T19:19:05.580Z,0.10
2023-04-02T19:21:43.438Z,0.10
2023-04-02T19:24:14.466Z,0.10
2023-04-02T19:26:55.575Z,0.10
2023-04-02T19:29:32.760Z,0.10
2023-04-02T19:32:06.983Z,0.10
2023-04-02T19:34:45.404Z,0.10
2023-04-02T19:37:23.322Z,0.10
2023-04-02T19:39:59.094Z,0.20
2023-04-02T19:42:45.836Z,0.20
2023-04-02T19:45:32.095Z,0.20
2023-04-02T19:48:01.797Z,0.20
2023-04-02T19:50:30.203Z,0.30
2023-04-02T19:52:58.826Z,0.40
2023-04-02T19:55:27.564Z,0.40
2023-04-02T19:58:08.381Z,0.50
2023-04-02T20:00:44.605Z,0.20
2023-04-02T20:03:13.896Z,0.50
2023-04-02T20:05:41.322Z,1.00
2023-04-02T20:08:10.289Z,0.70
2023-04-02T20:10:38.274Z,0.90
2023-04-02T20:13:06.849Z,1.00
2023-04-02T20:15:34.833Z,0.80
2023-04-02T20:18:02.582Z,0.60
2023-04-02T20:20:29.861Z,1.10
2023-04-02T20:22:57.234Z,1.00
2023-04-02T20:25:25.044Z,1.00
2023-04-02T20:27:52.913Z,1.00
2023-04-02T20:30:20.480Z,1.10
2023-04-02T20:32:47.474Z,1.30
2023-04-02T20:35:14.584Z,0.70
2023-04-02T20:37:42.148Z,1.00
2023-04-02T20:40:10.112Z,1.10
2023-04-02T20:42:37.697Z,1.00
2023-04-02T20:45:06.273Z,1.40
2023-04-02T20:47:33.726Z,0.90
2023-04-02T20:50:00.562Z,1.20
2023-04-02T20:52:30.262Z,1.50
2023-04-02T20:54:57.512Z,1.00
2023-04-02T20:57:26.204Z,0.80
2023-04-02T20:59:54.789Z,0.80
2023-04-02T21:02:21.559Z,1.10
2023-04-02T21:04:48.395Z,1.00
2023-04-02T21:07:15.579Z,1.20
2023-04-02T21:09:42.299Z,1.70
2023-04-02T21:12:09.030Z,1.60
2023-04-02T21:14:38.940Z,0.90
2023-04-02T21:17:07.416Z,2.00
2023-04-02T21:19:34.484Z,1.40
2023-04-02T21:22:01.467Z,1.70
2023-04-02T21:24:28.221Z,1.50
2023-04-02T21:26:54.974Z,2.00
2023-04-02T21:29:21.760Z,2.00
2023-04-02T21:31:48.616Z,1.60
2023-04-02T21:34:16.434Z,2.00
2023-04-02T21:36:44.271Z,1.10
2023-04-02T21:39:12.601Z,1.10
2023-04-02T21:41:40.644Z,1.70
2023-04-02T21:44:08.449Z,1.80
2023-04-02T21:46:36.704Z,1.70
2023-04-02T21:49:03.530Z,2.30
2023-04-02T21:51:31.667Z,1.60
2023-04-02T21:53:58.592Z,1.70
2023-04-02T21:56:30.212Z,1.80
2023-04-02T21:58:57.354Z,2.10
2023-04-02T22:01:28.027Z,1.70
2023-04-02T22:03:55.615Z,1.90
2023-04-02T22:06:23.078Z,1.30
2023-04-02T22:08:56.971Z,1.80
2023-04-02T22:11:25.469Z,1.20
2023-04-02T22:13:52.522Z,1.30
2023-04-02T22:16:20.937Z,1.60
2023-04-02T22:18:48.257Z,1.20
2023-04-02T22:21:15.483Z,1.40
2023-04-02T22:23:42.677Z,1.30
2023-04-02T22:26:10.337Z,1.40
2023-04-02T22:28:37.678Z,1.00
2023-04-02T22:31:15.123Z,1.20
2023-04-02T22:33:42.720Z,2.00
2023-04-02T22:36:09.901Z,1.50
2023-04-02T22:38:36.977Z,1.70
2023-04-02T22:41:04.999Z,1.80
2023-04-02T22:43:31.885Z,0.80
2023-04-02T22:45:58.735Z,1.40
2023-04-02T22:48:25.684Z,1.50
2023-04-02T22:50:52.868Z,1.40
2023-04-02T22:53:20.078Z,0.90
2023-04-02T22:55:46.840Z,1.10
2023-04-02T22:58:13.612Z,1.20
2023-04-02T23:00:41.153Z,1.30
2023-04-02T23:03:08.060Z,1.30
2023-04-02T23:05:34.753Z,0.80
2023-04-02T23:08:01.719Z,1.10
2023-04-02T23:10:29.097Z,1.10
2023-04-02T23:12:57.617Z,0.80
2023-04-02T23:15:24.412Z,1.10
2023-04-02T23:17:51.201Z,1.00
2023-04-02T23:20:18.014Z,1.10
2023-04-02T23:22:44.978Z,1.10
2023-04-02T23:25:11.849Z,1.10
2023-04-02T23:27:38.688Z,0.90
2023-04-02T23:30:06.632Z,1.10
2023-04-02T23:32:33.537Z,1.10
2023-04-02T23:35:00.365Z,0.80
2023-04-02T23:37:27.149Z,1.40
2023-04-02T23:39:53.865Z,0.60
2023-04-02T23:42:20.639Z,1.00
2023-04-02T23:44:47.388Z,1.00
2023-04-02T23:47:14.100Z,0.90
2023-04-02T23:49:42.239Z,0.90
2023-04-02T23:52:08.995Z,0.90
2023-04-02T23:54:36.971Z,0.50
2023-04-02T23:57:03.744Z,0.60
2023-04-02T23:59:30.621Z,0.90
